< < Back
Terminal Aerodrome Forecast


Current Version              Previous Versions:   1  2  3  4  5  6  7  8  9  

Terminal Aerodrome Forecast

662
FTUS42 KTAE 210445 AAA
TAFTLH
TAF AMD
KTLH 210445Z 2105/2124 VRB04KT 5SM BR SCT008
     FM210600 31003KT P6SM BKN015
     FM211500 34005KT P6SM FEW200=



Latest METAR

057
SAUS80 KWBC 211200
MTRTLH
METAR KTLH 211153Z 33004KT 10SM FEW250 16/13 A2999 RMK AO2 SLP154 7////
T01610128 10189 20156 53023


USA.gov is the U.S. government's official web portal to all federal, state and local government web resources and services.